sensor_id;sensor_type;location;lat;lon;timestamp;temperature;humidity
21255;DHT22;10785;50.674;17.954;2023-05-06T00:01:26;11.90;26.50
21255;DHT22;10785;50.674;17.954;2023-05-06T00:03:55;11.90;27.30
21255;DHT22;10785;50.674;17.954;2023-05-06T00:06:24;11.80;28.20
21255;DHT22;10785;50.674;17.954;2023-05-06T00:08:53;11.80;28.70
21255;DHT22;10785;50.674;17.954;2023-05-06T00:11:22;11.70;30.40
21255;DHT22;10785;50.674;17.954;2023-05-06T00:13:50;11.70;33.20
21255;DHT22;10785;50.674;17.954;2023-05-06T00:16:22;11.70;33.70
21255;DHT22;10785;50.674;17.954;2023-05-06T00:18:51;11.60;34.50
21255;DHT22;10785;50.674;17.954;2023-05-06T00:21:19;11.60;36.90
21255;DHT22;10785;50.674;17.954;2023-05-06T00:23:48;11.50;37.50
21255;DHT22;10785;50.674;17.954;2023-05-06T00:26:17;11.40;39.80
21255;DHT22;10785;50.674;17.954;2023-05-06T00:28:46;11.40;40.60
21255;DHT22;10785;50.674;17.954;2023-05-06T00:31:14;11.30;43.10
21255;DHT22;10785;50.674;17.954;2023-05-06T00:33:44;11.30;44.40
21255;DHT22;10785;50.674;17.954;2023-05-06T00:36:13;11.30;45.80
21255;DHT22;10785;50.674;17.954;2023-05-06T00:38:41;11.20;48.00
21255;DHT22;10785;50.674;17.954;2023-05-06T00:41:10;11.30;48.50
21255;DHT22;10785;50.674;17.954;2023-05-06T00:43:40;11.30;49.50
21255;DHT22;10785;50.674;17.954;2023-05-06T00:46:09;11.30;49.90
21255;DHT22;10785;50.674;17.954;2023-05-06T00:48:38;11.20;51.30
21255;DHT22;10785;50.674;17.954;2023-05-06T00:51:08;11.20;52.40
21255;DHT22;10785;50.674;17.954;2023-05-06T00:53:37;11.20;54.10
21255;DHT22;10785;50.674;17.954;2023-05-06T00:56:07;11.20;55.00
21255;DHT22;10785;50.674;17.954;2023-05-06T00:58:36;11.20;55.50
21255;DHT22;10785;50.674;17.954;2023-05-06T01:01:05;11.20;58.50
21255;DHT22;10785;50.674;17.954;2023-05-06T01:03:34;11.10;58.50
21255;DHT22;10785;50.674;17.954;2023-05-06T01:06:12;11.10;59.50
21255;DHT22;10785;50.674;17.954;2023-05-06T01:08:46;11.10;61.30
21255;DHT22;10785;50.674;17.954;2023-05-06T01:11:21;11.10;63.70
21255;DHT22;10785;50.674;17.954;2023-05-06T01:13:55;11.10;64.60
21255;DHT22;10785;50.674;17.954;2023-05-06T01:16:28;11.10;64.20
21255;DHT22;10785;50.674;17.954;2023-05-06T01:18:59;11.10;65.10
21255;DHT22;10785;50.674;17.954;2023-05-06T01:21:29;11.10;66.50
21255;DHT22;10785;50.674;17.954;2023-05-06T01:24:02;11.10;68.10
21255;DHT22;10785;50.674;17.954;2023-05-06T01:26:31;11.00;69.10
21255;DHT22;10785;50.674;17.954;2023-05-06T01:29:00;11.00;70.60
21255;DHT22;10785;50.674;17.954;2023-05-06T01:31:36;11.00;70.90
21255;DHT22;10785;50.674;17.954;2023-05-06T01:34:11;11.00;70.40
21255;DHT22;10785;50.674;17.954;2023-05-06T01:36:48;11.00;71.40
21255;DHT22;10785;50.674;17.954;2023-05-06T01:39:24;11.00;72.90
21255;DHT22;10785;50.674;17.954;2023-05-06T01:41:56;11.00;74.40
21255;DHT22;10785;50.674;17.954;2023-05-06T01:44:27;11.00;76.70
21255;DHT22;10785;50.674;17.954;2023-05-06T01:46:59;11.00;77.80
21255;DHT22;10785;50.674;17.954;2023-05-06T01:49:29;10.90;78.10
21255;DHT22;10785;50.674;17.954;2023-05-06T01:51:57;10.90;81.00
21255;DHT22;10785;50.674;17.954;2023-05-06T01:54:29;10.90;82.10
21255;DHT22;10785;50.674;17.954;2023-05-06T01:57:00;10.90;83.30
21255;DHT22;10785;50.674;17.954;2023-05-06T01:59:29;10.90;85.00
21255;DHT22;10785;50.674;17.954;2023-05-06T02:01:58;10.90;85.30
21255;DHT22;10785;50.674;17.954;2023-05-06T02:04:27;10.90;86.50
21255;DHT22;10785;50.674;17.954;2023-05-06T02:06:55;10.90;88.50
21255;DHT22;10785;50.674;17.954;2023-05-06T02:09:24;10.80;90.20
21255;DHT22;10785;50.674;17.954;2023-05-06T02:11:59;10.70;92.20
21255;DHT22;10785;50.674;17.954;2023-05-06T02:27:21;10.50;99.20
21255;DHT22;10785;50.674;17.954;2023-05-06T02:29:50;10.40;99.90
21255;DHT22;10785;50.674;17.954;2023-05-06T02:32:18;10.40;99.90
21255;DHT22;10785;50.674;17.954;2023-05-06T02:34:47;10.40;99.90
21255;DHT22;10785;50.674;17.954;2023-05-06T02:37:15;10.30;99.90
21255;DHT22;10785;50.674;17.954;2023-05-06T02:39:44;10.30;99.90
21255;DHT22;10785;50.674;17.954;2023-05-06T02:44:55;10.20;99.90
21255;DHT22;10785;50.674;17.954;2023-05-06T02:47:23;10.20;99.90
21255;DHT22;10785;50.674;17.954;2023-05-06T02:49:52;10.10;99.90
21255;DHT22;10785;50.674;17.954;2023-05-06T02:52:21;10.10;99.90
21255;DHT22;10785;50.674;17.954;2023-05-06T02:54:49;10.10;99.90
21255;DHT22;10785;50.674;17.954;2023-05-06T02:57:18;10.00;99.90
21255;DHT22;10785;50.674;17.954;2023-05-06T02:59:46;10.00;99.90
21255;DHT22;10785;50.674;17.954;2023-05-06T03:02:16;10.00;99.90
21255;DHT22;10785;50.674;17.954;2023-05-06T03:04:45;10.00;99.90
21255;DHT22;10785;50.674;17.954;2023-05-06T03:07:13;10.00;99.90
21255;DHT22;10785;50.674;17.954;2023-05-06T03:09:43;10.00;99.90
21255;DHT22;10785;50.674;17.954;2023-05-06T03:12:11;9.90;99.90
21255;DHT22;10785;50.674;17.954;2023-05-06T03:14:40;9.90;99.90
21255;DHT22;10785;50.674;17.954;2023-05-06T03:17:10;9.90;99.90
21255;DHT22;10785;50.674;17.954;2023-05-06T03:19:40;9.90;99.90
21255;DHT22;10785;50.674;17.954;2023-05-06T03:22:11;9.90;99.90
21255;DHT22;10785;50.674;17.954;2023-05-06T03:24:42;9.90;99.90
21255;DHT22;10785;50.674;17.954;2023-05-06T03:27:12;10.00;99.90
21255;DHT22;10785;50.674;17.954;2023-05-06T03:29:42;9.90;99.90
21255;DHT22;10785;50.674;17.954;2023-05-06T03:32:12;10.00;99.90
21255;DHT22;10785;50.674;17.954;2023-05-06T03:34:44;10.00;99.90
21255;DHT22;10785;50.674;17.954;2023-05-06T03:37:17;10.00;99.90
21255;DHT22;10785;50.674;17.954;2023-05-06T03:39:51;10.10;99.90
21255;DHT22;10785;50.674;17.954;2023-05-06T03:42:23;10.10;99.90
21255;DHT22;10785;50.674;17.954;2023-05-06T03:44:52;10.20;99.90
21255;DHT22;10785;50.674;17.954;2023-05-06T03:47:21;10.20;99.90
21255;DHT22;10785;50.674;17.954;2023-05-06T03:49:51;10.30;99.90
21255;DHT22;10785;50.674;17.954;2023-05-06T03:52:20;10.30;99.90
21255;DHT22;10785;50.674;17.954;2023-05-06T03:54:49;10.30;99.90
21255;DHT22;10785;50.674;17.954;2023-05-06T03:57:17;10.40;99.90
21255;DHT22;10785;50.674;17.954;2023-05-06T03:59:46;10.40;99.90
21255;DHT22;10785;50.674;17.954;2023-05-06T04:24:49;10.30;99.90
21255;DHT22;10785;50.674;17.954;2023-05-06T04:27:18;10.40;99.90
21255;DHT22;10785;50.674;17.954;2023-05-06T04:29:47;10.50;99.90
21255;DHT22;10785;50.674;17.954;2023-05-06T04:32:16;10.40;99.90
21255;DHT22;10785;50.674;17.954;2023-05-06T04:34:45;10.50;99.90
21255;DHT22;10785;50.674;17.954;2023-05-06T04:37:15;10.50;99.90
21255;DHT22;10785;50.674;17.954;2023-05-06T04:39:50;10.60;99.90
21255;DHT22;10785;50.674;17.954;2023-05-06T04:42:19;10.60;99.90
21255;DHT22;10785;50.674;17.954;2023-05-06T04:45:00;10.60;99.90
21255;DHT22;10785;50.674;17.954;2023-05-06T04:47:32;10.60;99.90
21255;DHT22;10785;50.674;17.954;2023-05-06T04:50:02;10.70;99.90
21255;DHT22;10785;50.674;17.954;2023-05-06T04:52:32;10.80;99.90
21255;DHT22;10785;50.674;17.954;2023-05-06T04:55:03;10.90;99.90
21255;DHT22;10785;50.674;17.954;2023-05-06T04:57:34;11.00;99.90
21255;DHT22;10785;50.674;17.954;2023-05-06T05:00:05;11.00;99.90
21255;DHT22;10785;50.674;17.954;2023-05-06T05:02:34;11.10;99.90
21255;DHT22;10785;50.674;17.954;2023-05-06T05:05:05;11.10;99.90
21255;DHT22;10785;50.674;17.954;2023-05-06T05:07:34;11.20;99.90
21255;DHT22;10785;50.674;17.954;2023-05-06T05:10:05;11.20;99.90
21255;DHT22;10785;50.674;17.954;2023-05-06T05:12:36;11.30;99.90
21255;DHT22;10785;50.674;17.954;2023-05-06T05:15:06;11.40;99.90
21255;DHT22;10785;50.674;17.954;2023-05-06T05:17:37;11.40;99.90
21255;DHT22;10785;50.674;17.954;2023-05-06T05:20:07;11.40;99.90
21255;DHT22;10785;50.674;17.954;2023-05-06T05:22:36;11.50;99.90
21255;DHT22;10785;50.674;17.954;2023-05-06T05:25:07;11.50;99.90
21255;DHT22;10785;50.674;17.954;2023-05-06T05:27:36;11.60;99.90
21255;DHT22;10785;50.674;17.954;2023-05-06T05:30:06;11.60;99.90
21255;DHT22;10785;50.674;17.954;2023-05-06T05:32:38;11.70;99.90
21255;DHT22;10785;50.674;17.954;2023-05-06T05:35:07;11.80;99.90
21255;DHT22;10785;50.674;17.954;2023-05-06T05:37:39;11.80;99.90
21255;DHT22;10785;50.674;17.954;2023-05-06T05:40:10;12.00;99.90
21255;DHT22;10785;50.674;17.954;2023-05-06T05:42:41;12.20;99.90
21255;DHT22;10785;50.674;17.954;2023-05-06T05:45:19;12.30;99.90
21255;DHT22;10785;50.674;17.954;2023-05-06T05:47:49;12.40;99.90
21255;DHT22;10785;50.674;17.954;2023-05-06T05:50:18;12.40;99.90
21255;DHT22;10785;50.674;17.954;2023-05-06T05:52:47;12.40;99.90
21255;DHT22;10785;50.674;17.954;2023-05-06T05:55:18;12.30;99.90
21255;DHT22;10785;50.674;17.954;2023-05-06T05:57:47;12.40;99.90
21255;DHT22;10785;50.674;17.954;2023-05-06T06:00:18;12.20;99.90
21255;DHT22;10785;50.674;17.954;2023-05-06T06:02:47;12.20;99.90
21255;DHT22;10785;50.674;17.954;2023-05-06T06:05:19;12.10;99.90
21255;DHT22;10785;50.674;17.954;2023-05-06T06:07:48;12.10;99.90
21255;DHT22;10785;50.674;17.954;2023-05-06T06:10:19;12.10;99.90
21255;DHT22;10785;50.674;17.954;2023-05-06T06:12:48;12.10;99.90
21255;DHT22;10785;50.674;17.954;2023-05-06T06:15:21;12.00;99.90
21255;DHT22;10785;50.674;17.954;2023-05-06T06:17:52;12.10;99.90
21255;DHT22;10785;50.674;17.954;2023-05-06T06:20:23;12.00;99.90
21255;DHT22;10785;50.674;17.954;2023-05-06T06:22:52;12.00;99.90
21255;DHT22;10785;50.674;17.954;2023-05-06T06:25:22;12.10;99.90
21255;DHT22;10785;50.674;17.954;2023-05-06T06:27:51;12.10;99.90
21255;DHT22;10785;50.674;17.954;2023-05-06T06:30:19;12.00;99.90
21255;DHT22;10785;50.674;17.954;2023-05-06T06:32:49;12.10;99.90
21255;DHT22;10785;50.674;17.954;2023-05-06T06:35:18;12.20;99.90
21255;DHT22;10785;50.674;17.954;2023-05-06T06:37:47;12.10;99.90
21255;DHT22;10785;50.674;17.954;2023-05-06T06:40:16;12.20;99.90
21255;DHT22;10785;50.674;17.954;2023-05-06T06:42:45;12.30;99.90
21255;DHT22;10785;50.674;17.954;2023-05-06T06:45:37;12.40;99.90
21255;DHT22;10785;50.674;17.954;2023-05-06T06:48:06;12.40;99.90
21255;DHT22;10785;50.674;17.954;2023-05-06T06:50:34;12.50;99.90
21255;DHT22;10785;50.674;17.954;2023-05-06T06:53:03;12.50;99.90
21255;DHT22;10785;50.674;17.954;2023-05-06T06:55:32;12.50;99.90
21255;DHT22;10785;50.674;17.954;2023-05-06T06:58:02;12.40;99.90
21255;DHT22;10785;50.674;17.954;2023-05-06T07:00:31;12.40;99.90
21255;DHT22;10785;50.674;17.954;2023-05-06T07:03:00;12.40;99.90
21255;DHT22;10785;50.674;17.954;2023-05-06T07:05:28;12.40;99.90
21255;DHT22;10785;50.674;17.954;2023-05-06T07:07:57;12.40;99.90
21255;DHT22;10785;50.674;17.954;2023-05-06T07:10:25;12.40;99.90
21255;DHT22;10785;50.674;17.954;2023-05-06T07:12:54;12.50;99.90
21255;DHT22;10785;50.674;17.954;2023-05-06T07:15:26;12.50;99.90
21255;DHT22;10785;50.674;17.954;2023-05-06T07:17:54;12.60;99.90
21255;DHT22;10785;50.674;17.954;2023-05-06T07:20:23;12.70;99.90
21255;DHT22;10785;50.674;17.954;2023-05-06T07:42:30;13.00;99.90
21255;DHT22;10785;50.674;17.954;2023-05-06T07:44:59;13.10;99.90
21255;DHT22;10785;50.674;17.954;2023-05-06T07:47:32;13.10;99.90
21255;DHT22;10785;50.674;17.954;2023-05-06T07:50:01;13.10;99.90
21255;DHT22;10785;50.674;17.954;2023-05-06T07:52:31;13.00;99.90
21255;DHT22;10785;50.674;17.954;2023-05-06T07:55:00;12.90;99.90
21255;DHT22;10785;50.674;17.954;2023-05-06T07:57:31;12.70;99.90
21255;DHT22;10785;50.674;17.954;2023-05-06T07:59:59;12.60;99.90
21255;DHT22;10785;50.674;17.954;2023-05-06T08:02:39;12.60;99.90
21255;DHT22;10785;50.674;17.954;2023-05-06T08:05:11;12.50;99.90
21255;DHT22;10785;50.674;17.954;2023-05-06T08:07:40;12.50;99.90
21255;DHT22;10785;50.674;17.954;2023-05-06T08:10:09;12.30;99.90
21255;DHT22;10785;50.674;17.954;2023-05-06T08:12:40;12.10;99.90
21255;DHT22;10785;50.674;17.954;2023-05-06T08:15:09;11.70;99.90
21255;DHT22;10785;50.674;17.954;2023-05-06T08:17:38;11.50;1.00
21255;DHT22;10785;50.674;17.954;2023-05-06T08:20:08;11.30;1.00
21255;DHT22;10785;50.674;17.954;2023-05-06T08:22:37;11.10;1.00
21255;DHT22;10785;50.674;17.954;2023-05-06T08:25:06;10.90;99.90
21255;DHT22;10785;50.674;17.954;2023-05-06T08:27:35;10.80;99.90
21255;DHT22;10785;50.674;17.954;2023-05-06T08:30:07;10.70;99.90
21255;DHT22;10785;50.674;17.954;2023-05-06T08:32:36;10.60;99.90
21255;DHT22;10785;50.674;17.954;2023-05-06T08:35:06;10.40;99.90
21255;DHT22;10785;50.674;17.954;2023-05-06T08:37:35;10.40;99.90
21255;DHT22;10785;50.674;17.954;2023-05-06T08:40:05;10.40;99.90
21255;DHT22;10785;50.674;17.954;2023-05-06T08:42:37;10.40;99.90
21255;DHT22;10785;50.674;17.954;2023-05-06T08:45:09;10.40;99.90
21255;DHT22;10785;50.674;17.954;2023-05-06T08:47:39;10.40;99.90
21255;DHT22;10785;50.674;17.954;2023-05-06T08:50:10;10.40;99.90
21255;DHT22;10785;50.674;17.954;2023-05-06T08:52:39;10.40;99.90
21255;DHT22;10785;50.674;17.954;2023-05-06T08:55:08;10.50;99.90
21255;DHT22;10785;50.674;17.954;2023-05-06T08:57:38;10.50;99.90
21255;DHT22;10785;50.674;17.954;2023-05-06T09:00:10;10.60;99.90
21255;DHT22;10785;50.674;17.954;2023-05-06T09:02:39;10.60;99.90
21255;DHT22;10785;50.674;17.954;2023-05-06T09:05:09;10.50;99.90
21255;DHT22;10785;50.674;17.954;2023-05-06T09:07:39;10.50;99.90
21255;DHT22;10785;50.674;17.954;2023-05-06T09:10:12;10.40;99.90
21255;DHT22;10785;50.674;17.954;2023-05-06T09:12:40;10.40;99.90
21255;DHT22;10785;50.674;17.954;2023-05-06T09:15:11;10.50;99.90
21255;DHT22;10785;50.674;17.954;2023-05-06T09:17:41;10.50;99.90
21255;DHT22;10785;50.674;17.954;2023-05-06T09:20:15;10.50;99.90
21255;DHT22;10785;50.674;17.954;2023-05-06T09:22:44;10.50;99.90
21255;DHT22;10785;50.674;17.954;2023-05-06T09:25:13;10.40;99.90
21255;DHT22;10785;50.674;17.954;2023-05-06T09:27:42;10.50;99.90
21255;DHT22;10785;50.674;17.954;2023-05-06T09:30:13;10.50;99.90
21255;DHT22;10785;50.674;17.954;2023-05-06T09:32:42;10.50;99.90
21255;DHT22;10785;50.674;17.954;2023-05-06T09:35:16;10.40;99.90
21255;DHT22;10785;50.674;17.954;2023-05-06T09:37:44;10.50;99.90
21255;DHT22;10785;50.674;17.954;2023-05-06T09:40:13;10.50;99.90
21255;DHT22;10785;50.674;17.954;2023-05-06T09:42:42;10.50;99.90
21255;DHT22;10785;50.674;17.954;2023-05-06T09:45:15;10.40;99.90
21255;DHT22;10785;50.674;17.954;2023-05-06T09:47:45;10.40;99.90
21255;DHT22;10785;50.674;17.954;2023-05-06T09:50:15;10.30;99.90
21255;DHT22;10785;50.674;17.954;2023-05-06T09:52:44;10.40;99.90
21255;DHT22;10785;50.674;17.954;2023-05-06T09:55:16;10.30;99.90
21255;DHT22;10785;50.674;17.954;2023-05-06T09:57:45;10.40;99.90
21255;DHT22;10785;50.674;17.954;2023-05-06T10:00:17;10.30;99.90
21255;DHT22;10785;50.674;17.954;2023-05-06T10:02:53;10.30;99.90
21255;DHT22;10785;50.674;17.954;2023-05-06T10:05:24;10.20;99.90
21255;DHT22;10785;50.674;17.954;2023-05-06T10:07:54;10.20;99.90
21255;DHT22;10785;50.674;17.954;2023-05-06T10:10:26;10.20;99.90
21255;DHT22;10785;50.674;17.954;2023-05-06T10:12:55;10.20;99.90
21255;DHT22;10785;50.674;17.954;2023-05-06T10:15:25;10.20;99.90
21255;DHT22;10785;50.674;17.954;2023-05-06T10:17:54;10.20;99.90
21255;DHT22;10785;50.674;17.954;2023-05-06T10:20:25;10.20;99.90
21255;DHT22;10785;50.674;17.954;2023-05-06T10:23:02;10.30;99.90
21255;DHT22;10785;50.674;17.954;2023-05-06T10:25:37;10.40;99.90
21255;DHT22;10785;50.674;17.954;2023-05-06T10:28:07;10.40;99.90
21255;DHT22;10785;50.674;17.954;2023-05-06T10:30:51;10.40;99.90
21255;DHT22;10785;50.674;17.954;2023-05-06T10:33:22;10.40;99.90
21255;DHT22;10785;50.674;17.954;2023-05-06T10:35:56;10.50;99.90
21255;DHT22;10785;50.674;17.954;2023-05-06T10:38:28;10.50;99.90
21255;DHT22;10785;50.674;17.954;2023-05-06T10:40:58;10.60;99.90
21255;DHT22;10785;50.674;17.954;2023-05-06T10:43:29;10.50;99.90
21255;DHT22;10785;50.674;17.954;2023-05-06T10:46:04;10.50;99.90
21255;DHT22;10785;50.674;17.954;2023-05-06T10:48:36;10.60;99.90
21255;DHT22;10785;50.674;17.954;2023-05-06T10:51:22;10.50;99.90
21255;DHT22;10785;50.674;17.954;2023-05-06T10:53:58;10.50;99.90
21255;DHT22;10785;50.674;17.954;2023-05-06T10:56:30;10.50;99.90
21255;DHT22;10785;50.674;17.954;2023-05-06T10:59:05;10.50;99.90
21255;DHT22;10785;50.674;17.954;2023-05-06T11:01:40;10.60;99.90
21255;DHT22;10785;50.674;17.954;2023-05-06T11:04:10;10.60;99.90
21255;DHT22;10785;50.674;17.954;2023-05-06T11:06:41;10.50;99.90
21255;DHT22;10785;50.674;17.954;2023-05-06T11:09:18;10.50;99.90
21255;DHT22;10785;50.674;17.954;2023-05-06T11:11:57;10.60;99.90
21255;DHT22;10785;50.674;17.954;2023-05-06T11:14:29;10.60;99.90
21255;DHT22;10785;50.674;17.954;2023-05-06T11:16:59;10.60;99.90
21255;DHT22;10785;50.674;17.954;2023-05-06T11:19:30;10.70;99.90
21255;DHT22;10785;50.674;17.954;2023-05-06T11:22:00;10.70;99.90
21255;DHT22;10785;50.674;17.954;2023-05-06T11:24:31;10.80;99.90
21255;DHT22;10785;50.674;17.954;2023-05-06T11:27:05;10.90;99.90
21255;DHT22;10785;50.674;17.954;2023-05-06T11:29:35;11.00;99.90
21255;DHT22;10785;50.674;17.954;2023-05-06T11:32:19;11.00;99.90
21255;DHT22;10785;50.674;17.954;2023-05-06T11:34:48;11.10;99.90
21255;DHT22;10785;50.674;17.954;2023-05-06T11:37:24;11.00;99.90
21255;DHT22;10785;50.674;17.954;2023-05-06T11:39:53;11.00;99.90
21255;DHT22;10785;50.674;17.954;2023-05-06T11:42:25;11.00;99.90
21255;DHT22;10785;50.674;17.954;2023-05-06T11:44:58;11.00;99.90
21255;DHT22;10785;50.674;17.954;2023-05-06T11:47:33;11.10;99.90
21255;DHT22;10785;50.674;17.954;2023-05-06T11:50:02;11.10;99.90
21255;DHT22;10785;50.674;17.954;2023-05-06T11:52:34;11.10;99.90
21255;DHT22;10785;50.674;17.954;2023-05-06T11:55:06;11.20;99.90
21255;DHT22;10785;50.674;17.954;2023-05-06T11:57:41;11.30;99.90
21255;DHT22;10785;50.674;17.954;2023-05-06T12:00:13;11.30;99.90
21255;DHT22;10785;50.674;17.954;2023-05-06T12:02:43;11.20;99.90
21255;DHT22;10785;50.674;17.954;2023-05-06T12:05:11;11.20;99.90
21255;DHT22;10785;50.674;17.954;2023-05-06T12:07:41;11.20;99.90
21255;DHT22;10785;50.674;17.954;2023-05-06T12:10:10;11.30;99.90
21255;DHT22;10785;50.674;17.954;2023-05-06T12:12:40;11.60;99.90
21255;DHT22;10785;50.674;17.954;2023-05-06T12:15:10;11.90;99.90
21255;DHT22;10785;50.674;17.954;2023-05-06T12:17:39;12.10;99.90
21255;DHT22;10785;50.674;17.954;2023-05-06T12:20:11;12.30;99.90
21255;DHT22;10785;50.674;17.954;2023-05-06T12:25:21;12.50;99.90
21255;DHT22;10785;50.674;17.954;2023-05-06T12:27:50;12.60;99.90
21255;DHT22;10785;50.674;17.954;2023-05-06T12:30:28;12.60;99.90
21255;DHT22;10785;50.674;17.954;2023-05-06T12:32:57;12.60;99.90
21255;DHT22;10785;50.674;17.954;2023-05-06T12:35:30;12.70;99.90
21255;DHT22;10785;50.674;17.954;2023-05-06T12:38:07;12.80;99.90
21255;DHT22;10785;50.674;17.954;2023-05-06T12:40:37;12.80;99.90
21255;DHT22;10785;50.674;17.954;2023-05-06T12:43:06;12.70;99.90
21255;DHT22;10785;50.674;17.954;2023-05-06T12:45:35;12.70;99.90
21255;DHT22;10785;50.674;17.954;2023-05-06T12:48:05;12.70;99.90
21255;DHT22;10785;50.674;17.954;2023-05-06T12:50:37;12.70;99.90
21255;DHT22;10785;50.674;17.954;2023-05-06T12:53:08;12.70;99.90
21255;DHT22;10785;50.674;17.954;2023-05-06T12:55:38;12.70;99.90
21255;DHT22;10785;50.674;17.954;2023-05-06T12:58:15;12.70;99.90
21255;DHT22;10785;50.674;17.954;2023-05-06T13:00:44;12.60;99.90
21255;DHT22;10785;50.674;17.954;2023-05-06T13:03:12;12.50;99.90
21255;DHT22;10785;50.674;17.954;2023-05-06T13:05:42;12.50;99.90
21255;DHT22;10785;50.674;17.954;2023-05-06T13:08:12;12.30;99.90
21255;DHT22;10785;50.674;17.954;2023-05-06T13:10:41;12.30;99.90
21255;DHT22;10785;50.674;17.954;2023-05-06T13:13:09;12.30;99.90
21255;DHT22;10785;50.674;17.954;2023-05-06T13:15:38;12.20;99.90
21255;DHT22;10785;50.674;17.954;2023-05-06T13:18:07;12.20;99.90
21255;DHT22;10785;50.674;17.954;2023-05-06T13:20:36;12.10;99.90
21255;DHT22;10785;50.674;17.954;2023-05-06T13:23:06;12.20;99.90
21255;DHT22;10785;50.674;17.954;2023-05-06T13:25:35;12.30;99.90
21255;DHT22;10785;50.674;17.954;2023-05-06T13:28:22;12.40;99.90
21255;DHT22;10785;50.674;17.954;2023-05-06T13:30:51;12.40;99.90
21255;DHT22;10785;50.674;17.954;2023-05-06T13:33:20;12.40;99.90
21255;DHT22;10785;50.674;17.954;2023-05-06T13:35:48;12.40;99.90
21255;DHT22;10785;50.674;17.954;2023-05-06T13:38:18;12.30;99.90
21255;DHT22;10785;50.674;17.954;2023-05-06T13:40:49;12.30;99.90
21255;DHT22;10785;50.674;17.954;2023-05-06T13:43:18;12.30;99.90
21255;DHT22;10785;50.674;17.954;2023-05-06T13:45:47;12.40;99.90
21255;DHT22;10785;50.674;17.954;2023-05-06T13:48:16;12.40;99.90
21255;DHT22;10785;50.674;17.954;2023-05-06T13:50:45;12.40;99.90
21255;DHT22;10785;50.674;17.954;2023-05-06T13:53:14;12.50;99.90
21255;DHT22;10785;50.674;17.954;2023-05-06T13:55:44;12.70;99.90
21255;DHT22;10785;50.674;17.954;2023-05-06T13:58:14;12.90;99.90
21255;DHT22;10785;50.674;17.954;2023-05-06T14:00:43;12.80;99.90
21255;DHT22;10785;50.674;17.954;2023-05-06T14:03:12;12.80;99.90
21255;DHT22;10785;50.674;17.954;2023-05-06T14:05:41;12.90;99.90
21255;DHT22;10785;50.674;17.954;2023-05-06T14:08:09;12.90;99.90
21255;DHT22;10785;50.674;17.954;2023-05-06T14:10:38;13.00;99.90
21255;DHT22;10785;50.674;17.954;2023-05-06T14:13:08;13.00;99.90
21255;DHT22;10785;50.674;17.954;2023-05-06T14:15:37;12.90;99.90
21255;DHT22;10785;50.674;17.954;2023-05-06T14:18:06;12.90;99.90
21255;DHT22;10785;50.674;17.954;2023-05-06T14:20:35;12.90;99.90
21255;DHT22;10785;50.674;17.954;2023-05-06T14:23:04;13.00;99.90
21255;DHT22;10785;50.674;17.954;2023-05-06T14:25:33;13.20;99.90
21255;DHT22;10785;50.674;17.954;2023-05-06T14:28:02;13.40;99.90
21255;DHT22;10785;50.674;17.954;2023-05-06T14:30:31;13.60;99.90
21255;DHT22;10785;50.674;17.954;2023-05-06T14:33:00;13.50;99.90
21255;DHT22;10785;50.674;17.954;2023-05-06T14:35:29;13.40;99.90
21255;DHT22;10785;50.674;17.954;2023-05-06T14:37:57;13.20;99.90
21255;DHT22;10785;50.674;17.954;2023-05-06T14:40:26;13.20;99.90
21255;DHT22;10785;50.674;17.954;2023-05-06T14:42:55;13.10;99.90
21255;DHT22;10785;50.674;17.954;2023-05-06T14:45:23;12.90;99.90
21255;DHT22;10785;50.674;17.954;2023-05-06T14:47:54;12.90;99.90
21255;DHT22;10785;50.674;17.954;2023-05-06T14:50:22;12.90;99.90
21255;DHT22;10785;50.674;17.954;2023-05-06T14:52:51;13.00;99.90
21255;DHT22;10785;50.674;17.954;2023-05-06T14:55:20;13.10;99.90
21255;DHT22;10785;50.674;17.954;2023-05-06T14:57:49;13.10;99.90
21255;DHT22;10785;50.674;17.954;2023-05-06T15:00:18;13.00;99.90
21255;DHT22;10785;50.674;17.954;2023-05-06T15:02:46;12.90;99.90
21255;DHT22;10785;50.674;17.954;2023-05-06T15:05:17;12.90;99.90
21255;DHT22;10785;50.674;17.954;2023-05-06T15:07:45;13.10;99.90
21255;DHT22;10785;50.674;17.954;2023-05-06T15:10:14;13.00;99.90
21255;DHT22;10785;50.674;17.954;2023-05-06T15:12:43;12.80;99.90
21255;DHT22;10785;50.674;17.954;2023-05-06T15:15:11;12.80;99.90
21255;DHT22;10785;50.674;17.954;2023-05-06T15:17:40;12.80;99.90
21255;DHT22;10785;50.674;17.954;2023-05-06T15:20:09;12.80;99.90
21255;DHT22;10785;50.674;17.954;2023-05-06T15:22:40;12.70;99.90
21255;DHT22;10785;50.674;17.954;2023-05-06T15:25:09;12.60;99.90
21255;DHT22;10785;50.674;17.954;2023-05-06T15:27:52;12.70;99.90
21255;DHT22;10785;50.674;17.954;2023-05-06T15:30:21;12.70;99.90
21255;DHT22;10785;50.674;17.954;2023-05-06T15:32:50;12.70;99.90
21255;DHT22;10785;50.674;17.954;2023-05-06T15:35:19;12.60;99.90
21255;DHT22;10785;50.674;17.954;2023-05-06T15:37:54;12.70;99.90
21255;DHT22;10785;50.674;17.954;2023-05-06T15:40:25;12.70;99.90
21255;DHT22;10785;50.674;17.954;2023-05-06T15:42:54;12.80;99.90
21255;DHT22;10785;50.674;17.954;2023-05-06T15:45:23;12.90;99.90
21255;DHT22;10785;50.674;17.954;2023-05-06T15:47:52;12.90;99.90
21255;DHT22;10785;50.674;17.954;2023-05-06T15:50:21;12.80;99.90
21255;DHT22;10785;50.674;17.954;2023-05-06T15:53:01;12.80;99.90
21255;DHT22;10785;50.674;17.954;2023-05-06T15:55:30;12.80;99.90
21255;DHT22;10785;50.674;17.954;2023-05-06T15:58:10;12.70;99.90
21255;DHT22;10785;50.674;17.954;2023-05-06T16:00:39;12.80;99.90
21255;DHT22;10785;50.674;17.954;2023-05-06T16:03:08;12.80;99.90
21255;DHT22;10785;50.674;17.954;2023-05-06T16:05:41;12.70;99.90
21255;DHT22;10785;50.674;17.954;2023-05-06T16:08:19;12.60;99.90
21255;DHT22;10785;50.674;17.954;2023-05-06T16:10:50;12.50;99.90
21255;DHT22;10785;50.674;17.954;2023-05-06T16:13:24;12.60;99.90
21255;DHT22;10785;50.674;17.954;2023-05-06T16:16:01;12.60;99.90
21255;DHT22;10785;50.674;17.954;2023-05-06T16:18:30;12.60;99.90
21255;DHT22;10785;50.674;17.954;2023-05-06T16:20:58;12.50;99.90
21255;DHT22;10785;50.674;17.954;2023-05-06T16:23:28;12.50;99.90
21255;DHT22;10785;50.674;17.954;2023-05-06T16:25:57;12.50;99.90
21255;DHT22;10785;50.674;17.954;2023-05-06T16:28:27;12.50;99.90
21255;DHT22;10785;50.674;17.954;2023-05-06T16:30:55;12.50;99.90
21255;DHT22;10785;50.674;17.954;2023-05-06T16:33:24;12.50;99.90
21255;DHT22;10785;50.674;17.954;2023-05-06T16:35:53;12.50;99.90
21255;DHT22;10785;50.674;17.954;2023-05-06T16:38:21;12.50;99.90